Time;durP1;ratioP1;P1;durP2;ratioP2;P2;SDS_P1;SDS_P2;PMS_P1;PMS_P2;Temp;Humidity;BMP_temperature;BMP_pressure;BME280_temperature;BME280_humidity;BME280_pressure;Samples;Min_cycle;Max_cycle;Signal;HPM_P1;HPM_P2
2021/07/09 00:02:12;;;;;;;23.23;17.90;;;;;;;31.37;39.12;101549.31;5014449;28;20963;-45
2021/07/09 00:04:39;;;;;;;28.07;19.60;;;;;;;31.32;39.49;101553.94;5015739;28;20458;-50
2021/07/09 00:07:07;;;;;;;18.80;14.43;;;;;;;31.52;38.47;101561.25;5013604;28;20483;-48
2021/07/09 00:09:36;;;;;;;19.30;15.10;;;;;;;31.87;37.68;101555.66;5015578;28;20488;-48
2021/07/09 00:12:04;;;;;;;22.40;15.50;;;;;;;31.66;38.13;101551.91;5013278;28;20498;-46
2021/07/09 00:14:33;;;;;;;17.73;13.83;;;;;;;31.70;38.45;101555.34;5022263;28;20469;-49
2021/07/09 00:17:01;;;;;;;18.63;13.63;;;;;;;31.68;38.57;101555.38;5008577;28;20534;-48
2021/07/09 00:19:29;;;;;;;19.00;12.47;;;;;;;31.72;38.32;101556.19;5022530;28;20530;-46
2021/07/09 00:21:57;;;;;;;19.80;12.70;;;;;;;31.28;38.99;101554.97;5014249;28;20481;-50
2021/07/09 00:24:25;;;;;;;21.27;12.90;;;;;;;31.55;38.93;101544.28;5015445;28;20460;-47
2021/07/09 00:26:54;;;;;;;15.73;12.10;;;;;;;31.62;38.52;101537.81;5013684;28;20482;-45
2021/07/09 00:29:21;;;;;;;18.20;12.87;;;;;;;31.76;38.42;101531.13;5012991;28;20469;-49
2021/07/09 00:31:50;;;;;;;13.43;11.50;;;;;;;31.24;39.16;101534.63;4997957;28;20937;-46
2021/07/09 00:34:19;;;;;;;20.40;14.20;;;;;;;31.03;39.83;101529.09;4995814;28;20518;-47
2021/07/09 00:36:47;;;;;;;14.87;12.30;;;;;;;31.44;38.75;101526.00;4994026;28;20917;-50
2021/07/09 00:39:15;;;;;;;20.53;15.13;;;;;;;31.43;39.04;101524.28;4995798;28;20460;-48
2021/07/09 00:41:43;;;;;;;14.40;12.07;;;;;;;31.80;37.92;101525.63;4994544;28;20514;-46
2021/07/09 00:44:12;;;;;;;15.13;10.73;;;;;;;31.71;37.80;101522.41;4995809;28;20461;-50
2021/07/09 00:46:42;;;;;;;18.17;12.87;;;;;;;31.74;37.89;101522.31;4994149;28;20485;-50
2021/07/09 00:49:10;;;;;;;17.50;12.30;;;;;;;31.72;38.05;101524.19;4996024;28;20833;-47
2021/07/09 00:51:38;;;;;;;18.70;15.20;;;;;;;31.38;38.78;101524.41;4989921;28;20495;-51
2021/07/09 00:54:06;;;;;;;18.67;14.07;;;;;;;31.58;38.29;101522.84;5005647;28;20461;-50
2021/07/09 00:56:34;;;;;;;22.97;16.90;;;;;;;31.75;38.37;101534.72;4993996;28;20481;-47
2021/07/09 00:59:03;;;;;;;19.83;13.33;;;;;;;31.27;39.05;101531.88;4995235;28;20463;-49
2021/07/09 01:01:32;;;;;;;15.57;12.70;;;;;;;31.62;38.74;101534.25;4994449;28;20480;-47
2021/07/09 01:04:01;;;;;;;15.20;12.43;;;;;;;31.81;38.03;101531.84;4998949;28;20459;-49
2021/07/09 01:06:29;;;;;;;14.77;13.20;;;;;;;31.84;38.44;101529.09;4992054;28;20564;-50
2021/07/09 01:08:56;;;;;;;19.97;13.50;;;;;;;31.46;38.71;101528.59;5009911;28;20454;-47
2021/07/09 01:11:24;;;;;;;16.40;12.33;;;;;;;31.38;38.70;101526.22;4991403;28;20485;-46
2021/07/09 01:13:52;;;;;;;16.70;13.20;;;;;;;31.35;38.86;101524.53;5010495;28;20459;-49
2021/07/09 01:16:20;;;;;;;15.57;13.40;;;;;;;31.39;38.94;101528.81;4988655;28;20813;-48
2021/07/09 01:18:49;;;;;;;14.60;12.33;;;;;;;31.27;38.89;101526.56;5011169;28;20464;-47
2021/07/09 01:21:16;;;;;;;17.10;13.20;;;;;;;31.41;38.32;101520.78;4992198;28;20477;-47
2021/07/09 01:23:45;;;;;;;15.43;12.87;;;;;;;31.27;39.21;101523.91;4998576;28;20469;-50
2021/07/09 01:26:14;;;;;;;17.07;13.23;;;;;;;31.43;38.56;101523.38;4997044;28;20463;-46
2021/07/09 01:28:42;;;;;;;19.73;12.60;;;;;;;31.49;38.29;101523.19;4998382;28;21278;-48
2021/07/09 01:31:10;;;;;;;18.90;12.93;;;;;;;31.33;38.43;101529.00;4997275;28;20493;-50
2021/07/09 01:33:38;;;;;;;14.13;11.40;;;;;;;31.05;38.92;101521.94;4998513;28;20826;-48
2021/07/09 01:36:06;;;;;;;13.43;12.00;;;;;;;31.36;38.67;101525.38;4997208;28;20772;-51
2021/07/09 01:38:34;;;;;;;17.90;12.40;;;;;;;31.66;37.79;101525.25;4998262;28;20512;-47
2021/07/09 01:41:02;;;;;;;16.50;11.60;;;;;;;31.52;38.26;101521.28;4987856;28;20477;-48
2021/07/09 01:43:31;;;;;;;23.53;13.67;;;;;;;31.68;38.13;101526.06;5012782;28;20499;-48
2021/07/09 01:46:00;;;;;;;13.60;12.00;;;;;;;31.48;38.70;101521.44;4997049;28;20470;-48
2021/07/09 01:48:27;;;;;;;17.43;12.80;;;;;;;30.94;39.64;101519.63;4995611;28;20485;-51
2021/07/09 01:50:57;;;;;;;15.20;12.97;;;;;;;31.11;39.30;101512.84;4996076;28;20487;-49
2021/07/09 01:53:25;;;;;;;17.43;13.00;;;;;;;31.69;38.45;101516.28;4998442;28;20487;-49
2021/07/09 01:55:53;;;;;;;19.53;12.60;;;;;;;31.55;38.41;101511.41;4998931;28;20463;-48
2021/07/09 01:58:32;;;;;;;15.30;11.40;;;;;;;31.21;38.75;101508.13;4997593;28;20522;-49
2021/07/09 02:01:02;;;;;;;13.27;11.60;;;;;;;31.39;38.26;101511.97;4985852;28;20485;-49
2021/07/09 02:03:30;;;;;;;17.13;12.13;;;;;;;31.58;38.12;101506.84;5012088;28;20964;-47
2021/07/09 02:06:02;;;;;;;17.70;13.20;;;;;;;31.53;38.07;101499.03;4991683;28;20466;-48
2021/07/09 02:08:29;;;;;;;18.20;12.77;;;;;;;31.32;38.59;101505.97;4997896;28;20496;-49
2021/07/09 02:11:02;;;;;;;16.57;12.83;;;;;;;30.69;39.21;101514.19;4986723;28;20799;-45
2021/07/09 02:13:31;;;;;;;18.40;12.80;;;;;;;30.95;39.39;101508.03;5011167;28;20508;-50
2021/07/09 02:16:01;;;;;;;14.40;12.33;;;;;;;30.99;38.93;101498.16;4986821;28;20493;-47
2021/07/09 02:18:29;;;;;;;16.40;11.80;;;;;;;31.60;37.92;101499.69;5011881;28;20545;-48
2021/07/09 02:20:58;;;;;;;17.00;11.33;;;;;;;31.24;38.12;101494.66;4988159;28;20517;-46
2021/07/09 02:23:26;;;;;;;16.60;12.90;;;;;;;31.11;38.35;101503.06;4997330;28;20596;-47
2021/07/09 02:25:53;;;;;;;20.00;13.37;;;;;;;30.97;38.67;101510.66;4999656;28;20466;-46
2021/07/09 02:28:27;;;;;;;19.40;12.70;;;;;;;31.30;38.10;101513.16;4997117;28;20527;-46
2021/07/09 02:30:56;;;;;;;15.13;13.20;;;;;;;31.39;37.90;101518.16;4995989;28;20492;-50
2021/07/09 02:33:24;;;;;;;13.90;12.40;;;;;;;31.36;37.85;101533.38;4997068;28;20955;-49
2021/07/09 02:35:52;;;;;;;15.13;11.97;;;;;;;31.51;37.65;101526.66;4997181;28;20459;-46
2021/07/09 02:38:19;;;;;;;15.90;12.73;;;;;;;31.50;37.92;101524.91;4996055;28;20491;-45
2021/07/09 02:40:47;;;;;;;16.60;12.60;;;;;;;31.30;37.98;101528.25;4999615;28;20481;-45
2021/07/09 02:43:15;;;;;;;20.37;12.80;;;;;;;31.27;37.84;101534.56;4995612;28;20482;-46
2021/07/09 02:45:42;;;;;;;16.67;12.90;;;;;;;31.73;37.33;101531.25;4997137;28;20482;-46
2021/07/09 02:48:18;;;;;;;16.13;13.97;;;;;;;31.42;38.06;101516.31;4995984;28;20509;-49
2021/07/09 02:50:45;;;;;;;16.80;14.00;;;;;;;31.58;37.50;101522.00;4997074;28;20480;-49
2021/07/09 02:53:13;;;;;;;20.20;13.47;;;;;;;31.83;36.85;101521.13;4995438;28;20566;-46
2021/07/09 02:55:41;;;;;;;21.43;14.30;;;;;;;31.67;37.02;101524.31;4996921;28;20469;-46
2021/07/09 02:58:08;;;;;;;25.07;14.40;;;;;;;31.48;37.39;101522.28;4995752;28;20493;-47
2021/07/09 03:00:36;;;;;;;24.10;14.70;;;;;;;30.98;38.58;101528.38;4996801;28;20576;-46
2021/07/09 03:03:04;;;;;;;20.63;15.20;;;;;;;31.38;37.96;101511.09;5001336;28;20498;-47
2021/07/09 03:05:33;;;;;;;18.13;15.00;;;;;;;31.47;37.71;101509.03;4996625;28;20461;-47
2021/07/09 03:08:00;;;;;;;23.90;15.13;;;;;;;31.39;38.52;101512.81;4995953;28;20493;-51
2021/07/09 03:10:28;;;;;;;18.77;15.27;;;;;;;31.19;38.47;101520.59;4996844;28;20574;-48
2021/07/09 03:12:55;;;;;;;19.70;15.17;;;;;;;31.51;37.99;101516.00;4995928;28;20482;-49
2021/07/09 03:15:23;;;;;;;23.40;15.70;;;;;;;31.76;37.28;101509.78;4996413;28;20459;-47
2021/07/09 03:17:50;;;;;;;17.97;15.00;;;;;;;31.89;36.89;101511.13;4995775;28;20817;-50
2021/07/09 03:20:18;;;;;;;21.90;15.07;;;;;;;31.59;37.50;101505.94;4996455;28;20485;-51
2021/07/09 03:22:47;;;;;;;20.87;14.53;;;;;;;30.76;39.37;101502.41;4995711;28;20876;-48
2021/07/09 03:25:15;;;;;;;25.70;15.20;;;;;;;31.35;38.26;101505.88;4996171;28;20466;-47
2021/07/09 03:27:42;;;;;;;21.47;15.23;;;;;;;31.57;37.63;101497.13;4995248;28;20945;-49
2021/07/09 03:30:12;;;;;;;18.50;16.00;;;;;;;31.36;38.05;101501.41;4996203;28;20485;-51
2021/07/09 03:32:40;;;;;;;24.17;17.60;;;;;;;31.80;37.17;101501.63;4992369;28;20479;-49
2021/07/09 03:35:09;;;;;;;25.10;16.13;;;;;;;31.68;37.37;101501.19;4996402;28;20461;-47
2021/07/09 03:37:36;;;;;;;24.70;18.70;;;;;;;31.36;38.20;101496.94;4995133;28;20509;-47
2021/07/09 03:40:07;;;;;;;21.73;16.90;;;;;;;31.10;38.57;101501.34;4996349;28;20483;-49
2021/07/09 03:42:35;;;;;;;23.40;16.80;;;;;;;31.39;38.02;101496.81;4995511;28;20477;-47
2021/07/09 03:45:03;;;;;;;21.30;15.30;;;;;;;31.48;37.89;101494.78;4996125;28;20472;-46
2021/07/09 03:47:30;;;;;;;23.83;17.60;;;;;;;31.78;37.44;101507.97;4997073;28;20596;-47
2021/07/09 03:49:58;;;;;;;24.80;19.00;;;;;;;31.58;37.46;101501.50;4999027;28;20493;-50
2021/07/09 03:52:25;;;;;;;22.17;17.70;;;;;;;31.30;38.01;101497.16;4995117;28;20486;-47
2021/07/09 03:54:53;;;;;;;20.73;16.57;;;;;;;31.68;37.56;101495.88;4996204;28;20746;-47
2021/07/09 03:57:22;;;;;;;23.63;18.73;;;;;;;31.12;38.66;101491.50;4997455;28;20821;-49
2021/07/09 03:59:49;;;;;;;30.73;18.90;;;;;;;31.32;38.43;101492.63;4995957;28;20495;-48
2021/07/09 04:02:17;;;;;;;24.00;16.73;;;;;;;31.56;37.51;101482.03;4995241;28;20482;-48
2021/07/09 04:04:44;;;;;;;22.67;17.00;;;;;;;31.15;38.16;101471.03;4996085;28;20472;-46
2021/07/09 04:07:12;;;;;;;28.30;17.93;;;;;;;31.15;38.16;101471.03;4994444;28;20493;-51
2021/07/09 04:09:40;;;;;;;26.73;18.20;;;;;;;31.80;37.08;101468.75;4995949;28;20572;-48
2021/07/09 04:12:08;;;;;;;69.20;43.97;;;;;;;31.90;36.78;101464.88;4994644;28;20493;-47
2021/07/09 04:14:37;;;;;;;33.27;26.10;;;;;;;31.97;37.09;101464.59;4995876;28;20497;-48
2021/07/09 04:17:04;;;;;;;36.37;21.60;;;;;;;32.09;36.75;101452.63;4994468;28;20499;-45
2021/07/09 04:19:32;;;;;;;27.10;20.70;;;;;;;32.31;36.31;101452.66;4995858;28;20493;-45
2021/07/09 04:21:59;;;;;;;23.90;18.50;;;;;;;31.68;37.30;101445.22;4994650;28;20490;-46
2021/07/09 04:24:27;;;;;;;33.40;24.03;;;;;;;31.47;37.88;101439.75;4998286;28;20523;-49
2021/07/09 04:26:54;;;;;;;53.00;34.33;;;;;;;31.47;37.87;101429.09;4994244;28;20483;-48
2021/07/09 04:29:22;;;;;;;59.07;39.70;;;;;;;31.82;37.76;101424.22;4995645;28;20470;-50
2021/07/09 04:31:55;;;;;;;28.87;16.90;;;;;;;31.85;37.26;101426.81;4992226;28;20565;-48
2021/07/09 04:34:23;;;;;;;24.80;17.50;;;;;;;32.12;36.94;101423.13;5003565;28;20509;-48
2021/07/09 04:36:50;;;;;;;21.50;16.20;;;;;;;31.90;37.45;101427.53;4992511;28;20497;-50
2021/07/09 04:39:18;;;;;;;26.90;17.23;;;;;;;31.88;37.76;101432.03;5007551;28;20465;-47
2021/07/09 04:41:46;;;;;;;23.43;18.13;;;;;;;31.58;38.67;101429.53;4989248;28;20787;-46
2021/07/09 04:44:14;;;;;;;21.27;16.60;;;;;;;31.42;38.41;101425.69;4999659;28;20461;-48
2021/07/09 04:46:42;;;;;;;21.43;15.00;;;;;;;31.38;38.74;101428.47;4993878;28;20489;-50
2021/07/09 04:49:11;;;;;;;25.83;15.97;;;;;;;31.84;37.92;101433.09;5009569;28;20467;-47
2021/07/09 04:51:39;;;;;;;20.07;16.20;;;;;;;32.04;37.54;101428.78;4983406;28;20491;-49
2021/07/09 04:54:06;;;;;;;20.33;16.53;;;;;;;32.13;37.47;101436.44;5009292;28;20923;-51
2021/07/09 04:56:34;;;;;;;23.80;16.97;;;;;;;32.00;37.62;101440.50;4997546;28;20478;-47
2021/07/09 04:59:01;;;;;;;22.60;17.60;;;;;;;32.50;36.74;101442.13;4999370;28;20462;-46
2021/07/09 05:01:33;;;;;;;21.30;15.67;;;;;;;31.76;38.39;101451.13;4997995;28;20544;-45
2021/07/09 05:04:01;;;;;;;23.20;16.43;;;;;;;32.36;37.29;101456.00;4999162;28;20461;-46
2021/07/09 05:06:31;;;;;;;23.90;14.63;;;;;;;32.24;37.33;101462.69;4997176;28;20481;-47
2021/07/09 05:08:58;;;;;;;24.60;18.13;;;;;;;31.75;38.50;101454.72;4999117;28;20542;-48
2021/07/09 05:11:26;;;;;;;22.03;15.50;;;;;;;31.86;38.46;101459.69;4997433;28;20481;-46
2021/07/09 05:13:53;;;;;;;22.87;16.40;;;;;;;32.08;37.89;101456.22;4998979;28;20489;-48
2021/07/09 05:16:21;;;;;;;25.97;16.67;;;;;;;32.20;37.61;101456.59;4995769;28;20529;-46
2021/07/09 05:18:49;;;;;;;24.97;15.80;;;;;;;32.12;37.70;101452.47;4998802;28;20495;-46
2021/07/09 05:21:16;;;;;;;20.20;15.10;;;;;;;32.16;37.71;101460.34;4994307;28;20484;-47
2021/07/09 05:23:45;;;;;;;24.10;15.40;;;;;;;32.50;36.93;101450.13;4998860;28;20455;-48
2021/07/09 05:26:13;;;;;;;20.97;15.23;;;;;;;32.52;37.49;101442.97;4995443;28;20456;-47
2021/07/09 05:28:40;;;;;;;20.83;15.60;;;;;;;32.61;36.98;101441.72;4998549;28;20470;-48
2021/07/09 05:31:08;;;;;;;28.23;16.20;;;;;;;32.03;37.62;101443.03;4994812;28;20492;-47
2021/07/09 05:33:35;;;;;;;19.40;15.63;;;;;;;31.95;38.45;101439.78;4998088;28;20538;-46
2021/07/09 05:36:03;;;;;;;21.73;14.27;;;;;;;32.48;37.47;101437.81;4994321;28;20465;-45
2021/07/09 05:38:31;;;;;;;22.47;14.60;;;;;;;32.33;37.52;101437.44;4998512;28;20809;-47
2021/07/09 05:41:01;;;;;;;24.40;13.87;;;;;;;32.33;37.72;101445.44;4994584;28;20485;-52
2021/07/09 05:43:28;;;;;;;22.57;14.90;;;;;;;32.01;38.50;101443.13;4998106;28;20485;-44
2021/07/09 05:45:56;;;;;;;21.67;15.20;;;;;;;32.33;38.12;101432.09;4996954;28;20469;-47
2021/07/09 05:48:24;;;;;;;16.10;13.93;;;;;;;32.45;37.83;101430.78;4998112;28;20511;-47
2021/07/09 05:50:51;;;;;;;25.07;14.23;;;;;;;32.35;37.94;101434.72;4998199;28;20953;-48
2021/07/09 05:53:19;;;;;;;18.97;14.30;;;;;;;32.58;37.50;101433.81;4993100;28;20502;-47
2021/07/09 05:55:46;;;;;;;16.10;13.67;;;;;;;32.66;37.34;101437.03;4997845;28;20798;-46
2021/07/09 05:58:16;;;;;;;15.20;13.00;;;;;;;32.46;37.71;101433.38;4992888;28;20615;-46
2021/07/09 06:00:43;;;;;;;17.90;13.47;;;;;;;32.62;37.51;101424.75;5000224;28;20492;-45
2021/07/09 06:03:11;;;;;;;14.60;12.20;;;;;;;32.40;37.80;101436.28;4992872;28;20489;-47
2021/07/09 06:05:38;;;;;;;15.13;12.73;;;;;;;32.47;37.94;101434.25;4997482;28;20915;-47
2021/07/09 06:08:08;;;;;;;21.43;12.67;;;;;;;32.64;37.51;101433.56;5002544;28;20519;-46
2021/07/09 06:10:36;;;;;;;19.07;13.20;;;;;;;33.13;36.98;101441.34;4997825;28;20793;-49
2021/07/09 06:13:04;;;;;;;16.30;11.53;;;;;;;32.82;36.74;101449.75;4991991;28;21043;-47
2021/07/09 06:15:33;;;;;;;18.70;12.93;;;;;;;32.96;37.46;101449.22;4997594;28;20465;-49
2021/07/09 06:18:17;;;;;;;15.47;11.43;;;;;;;33.31;36.32;101448.66;5000865;28;20572;-48
2021/07/09 06:20:45;;;;;;;19.87;12.97;;;;;;;33.12;37.04;101444.09;5000167;28;20489;-48
2021/07/09 06:23:12;;;;;;;15.40;8.40;;;;;;;32.83;36.07;101438.16;4995932;28;20491;-49
2021/07/09 06:25:40;;;;;;;11.43;9.07;;;;;;;33.10;36.23;101440.59;4997062;28;20579;-49
2021/07/09 06:28:08;;;;;;;13.80;10.10;;;;;;;32.65;37.35;101435.28;4990596;28;20495;-51
2021/07/09 06:30:36;;;;;;;18.20;10.30;;;;;;;33.03;37.14;101441.81;4997412;28;20484;-46
2021/07/09 06:33:07;;;;;;;24.93;10.63;;;;;;;33.41;36.14;101441.94;4994871;28;20492;-48
2021/07/09 06:35:36;;;;;;;12.50;10.20;;;;;;;33.71;35.73;101438.84;4996971;28;20463;-48
2021/07/09 06:38:03;;;;;;;9.17;7.70;;;;;;;33.67;35.64;101445.28;5001585;28;20483;-44
2021/07/09 06:40:31;;;;;;;11.40;9.00;;;;;;;33.47;36.18;101444.34;4997392;28;20481;-49
2021/07/09 06:42:59;;;;;;;11.90;9.70;;;;;;;33.19;37.28;101434.88;4990076;28;20488;-47
2021/07/09 06:45:27;;;;;;;24.63;18.43;;;;;;;32.77;37.23;101435.72;4996840;28;20462;-46
2021/07/09 06:47:56;;;;;;;21.40;16.40;;;;;;;32.99;36.79;101436.59;5002069;28;20489;-47
2021/07/09 06:50:23;;;;;;;17.80;9.70;;;;;;;32.87;36.66;101437.09;4996853;28;20488;-48
2021/07/09 06:52:51;;;;;;;12.40;8.33;;;;;;;32.83;37.31;101439.03;4990845;28;20565;-47
2021/07/09 06:55:18;;;;;;;12.83;8.80;;;;;;;33.29;36.24;101434.47;4997079;28;20459;-47
2021/07/09 06:57:49;;;;;;;12.07;8.30;;;;;;;33.32;35.81;101432.50;4988183;28;20489;-49
2021/07/09 07:00:18;;;;;;;24.67;17.23;;;;;;;33.04;36.76;101425.72;4996275;28;20490;-46
2021/07/09 07:02:46;;;;;;;11.90;8.70;;;;;;;32.90;37.00;101420.91;4999813;28;20978;-49
2021/07/09 07:05:16;;;;;;;12.30;7.40;;;;;;;32.83;37.42;101433.69;4997874;28;20501;-48
2021/07/09 07:07:44;;;;;;;12.10;9.30;;;;;;;33.05;36.10;101438.13;4998478;28;20490;-46
2021/07/09 07:10:13;;;;;;;12.27;9.63;;;;;;;33.47;35.95;101444.34;4998110;28;20482;-46
2021/07/09 07:12:42;;;;;;;13.13;8.90;;;;;;;33.29;36.58;101439.81;4987170;28;20471;-48
2021/07/09 07:15:12;;;;;;;18.60;10.70;;;;;;;33.22;37.22;101440.06;4996580;28;20492;-48
2021/07/09 07:17:39;;;;;;;14.13;10.03;;;;;;;33.03;36.99;101429.31;4986680;28;20763;-49
2021/07/09 07:20:08;;;;;;;21.47;13.33;;;;;;;32.91;37.73;101441.34;4996708;28;20525;-48
2021/07/09 07:22:37;;;;;;;16.10;10.07;;;;;;;32.65;37.28;101443.31;4986928;28;20489;-44
2021/07/09 07:25:06;;;;;;;14.10;10.90;;;;;;;32.20;37.98;101437.91;4996656;28;20772;-47
2021/07/09 07:27:33;;;;;;;12.87;10.13;;;;;;;32.56;36.28;101435.69;4986029;28;20564;-49
2021/07/09 07:30:01;;;;;;;12.37;10.27;;;;;;;32.67;36.77;101444.13;4996153;28;20478;-45
2021/07/09 07:32:28;;;;;;;14.00;11.00;;;;;;;32.85;36.83;101444.28;4996477;28;20936;-45
2021/07/09 07:34:56;;;;;;;16.00;10.80;;;;;;;32.17;37.54;101440.72;4999890;28;20634;-46
2021/07/09 07:37:24;;;;;;;20.10;15.40;;;;;;;32.40;37.16;101446.97;4986105;28;20486;-45
2021/07/09 07:39:53;;;;;;;15.53;9.60;;;;;;;32.57;37.00;101442.75;4996205;28;20477;-47
2021/07/09 07:42:21;;;;;;;13.83;8.30;;;;;;;32.45;36.68;101441.47;4996366;28;20543;-45
2021/07/09 07:44:48;;;;;;;19.27;11.30;;;;;;;32.71;36.99;101450.22;5000392;28;20464;-47
2021/07/09 07:47:21;;;;;;;14.67;9.77;;;;;;;32.87;36.26;101447.78;4984974;28;20531;-48
2021/07/09 07:49:48;;;;;;;13.90;8.27;;;;;;;32.89;35.41;101453.06;4996100;28;20786;-48
2021/07/09 07:52:16;;;;;;;9.77;8.03;;;;;;;32.99;35.73;101444.63;4990705;28;20560;-46
2021/07/09 07:54:46;;;;;;;10.67;7.10;;;;;;;33.11;35.23;101453.06;4996030;28;20492;-45
2021/07/09 07:57:16;;;;;;;11.50;8.30;;;;;;;33.31;34.55;101454.84;4994483;28;20774;-45
2021/07/09 07:59:45;;;;;;;11.67;7.80;;;;;;;33.19;34.12;101452.69;5000701;28;20957;-48
2021/07/09 08:02:12;;;;;;;10.93;7.33;;;;;;;33.04;34.18;101452.44;4993947;28;20488;-48
2021/07/09 08:04:40;;;;;;;28.07;18.83;;;;;;;32.53;36.62;101452.69;5001378;28;20549;-49
2021/07/09 08:07:10;;;;;;;19.53;13.27;;;;;;;32.46;36.41;101457.41;4989699;28;20497;-46
2021/07/09 08:09:37;;;;;;;13.27;9.40;;;;;;;33.08;35.62;101454.06;5001669;28;20936;-48
2021/07/09 08:12:07;;;;;;;11.20;9.37;;;;;;;33.02;35.36;101464.13;4993402;28;20568;-49
2021/07/09 08:14:36;;;;;;;8.87;6.90;;;;;;;33.20;34.56;101462.44;5006208;28;20485;-47
2021/07/09 08:17:04;;;;;;;11.37;7.57;;;;;;;33.59;34.03;101464.38;4998551;28;20568;-47
2021/07/09 08:19:32;;;;;;;10.43;6.30;;;;;;;32.71;35.08;101461.75;5006299;28;20809;-46
2021/07/09 08:21:59;;;;;;;9.97;8.40;;;;;;;32.57;36.63;101464.13;4991658;28;20546;-46
2021/07/09 08:24:27;;;;;;;8.97;5.70;;;;;;;32.88;34.61;101462.88;5008328;28;20559;-48
2021/07/09 08:26:55;;;;;;;11.40;7.43;;;;;;;32.86;35.46;101460.25;4995092;28;20492;-48
2021/07/09 08:29:24;;;;;;;10.83;7.70;;;;;;;32.67;35.54;101460.16;5006798;28;20465;-46
2021/07/09 08:31:55;;;;;;;14.60;6.17;;;;;;;33.20;34.74;101468.69;4998218;28;20494;-51
2021/07/09 08:34:23;;;;;;;16.53;12.13;;;;;;;33.83;34.39;101468.66;4999665;28;20504;-48
2021/07/09 08:36:50;;;;;;;11.43;8.07;;;;;;;33.92;34.52;101471.78;4997774;28;20800;-47
2021/07/09 08:39:18;;;;;;;15.97;7.17;;;;;;;34.50;33.51;101473.59;4999665;28;20458;-46
2021/07/09 08:41:48;;;;;;;12.80;6.37;;;;;;;34.34;34.23;101472.53;4998269;28;20513;-48
2021/07/09 08:44:16;;;;;;;9.57;5.63;;;;;;;34.09;33.70;101477.31;4999535;28;20460;-46
2021/07/09 08:46:45;;;;;;;10.43;6.00;;;;;;;34.57;32.49;101481.31;4997863;28;20494;-47
2021/07/09 08:49:16;;;;;;;9.77;7.90;;;;;;;34.00;34.13;101484.81;4999232;28;20500;-48
2021/07/09 08:51:44;;;;;;;9.63;5.40;;;;;;;34.25;33.44;101477.47;5000536;28;20478;-48
2021/07/09 08:54:13;;;;;;;10.00;5.80;;;;;;;33.92;32.65;101477.13;4999294;28;20862;-45
2021/07/09 08:56:40;;;;;;;10.10;5.33;;;;;;;34.50;32.75;101476.28;4991859;28;20769;-47
2021/07/09 08:59:09;;;;;;;10.83;6.77;;;;;;;34.33;33.65;101473.47;5008578;28;20779;-48
2021/07/09 09:01:47;;;;;;;10.97;5.13;;;;;;;34.43;32.50;101473.03;4997761;28;20474;-49
2021/07/09 09:04:23;;;;;;;7.60;5.60;;;;;;;34.88;31.76;101460.16;4999378;28;20458;-48
2021/07/09 09:06:57;;;;;;;7.27;4.80;;;;;;;34.06;34.09;101447.09;4997435;28;20561;-49
2021/07/09 09:09:24;;;;;;;7.40;5.60;;;;;;;34.48;33.38;101449.56;4998810;28;20470;-51
2021/07/09 09:12:03;;;;;;;10.00;6.80;;;;;;;34.88;32.33;101452.13;4997543;28;20688;-46
2021/07/09 09:14:33;;;;;;;10.27;5.30;;;;;;;34.67;32.92;101454.06;4998808;28;20496;-49
2021/07/09 09:17:01;;;;;;;10.03;5.23;;;;;;;34.87;31.12;101447.72;4997344;28;20565;-48
2021/07/09 09:19:30;;;;;;;7.83;4.77;;;;;;;34.92;33.20;101456.38;4998890;28;20868;-46
2021/07/09 09:22:12;;;;;;;9.50;4.37;;;;;;;34.06;32.00;101457.81;4997403;28;20793;-50
2021/07/09 09:24:40;;;;;;;59.57;43.77;;;;;;;34.29;32.36;101457.66;4998018;28;20491;-48
2021/07/09 09:27:21;;;;;;;11.37;6.83;;;;;;;34.41;32.33;101450.81;4997162;28;20489;-46
2021/07/09 09:29:49;;;;;;;7.60;4.77;;;;;;;34.38;32.43;101457.19;4998082;28;20572;-49
2021/07/09 09:32:17;;;;;;;5.77;3.53;;;;;;;34.50;31.47;101450.38;4997227;28;20983;-49
2021/07/09 09:34:47;;;;;;;7.30;4.50;;;;;;;34.51;32.82;101445.88;4998543;28;20810;-48
2021/07/09 09:37:18;;;;;;;12.07;5.47;;;;;;;34.55;32.22;101434.94;4996908;28;20509;-49
2021/07/09 09:39:48;;;;;;;9.47;4.00;;;;;;;34.58;31.23;101434.84;4998114;28;20924;-46
2021/07/09 09:42:22;;;;;;;6.30;3.77;;;;;;;34.51;32.87;101433.38;4997295;28;20791;-49
2021/07/09 09:44:51;;;;;;;7.83;4.33;;;;;;;34.80;30.89;101431.06;4998523;28;20476;-46
2021/07/09 09:47:20;;;;;;;10.67;3.70;;;;;;;35.03;31.45;101437.06;4996773;28;20486;-50
2021/07/09 09:49:55;;;;;;;6.50;5.00;;;;;;;34.30;33.13;101433.47;4999514;28;20783;-47
2021/07/09 09:52:36;;;;;;;6.17;3.70;;;;;;;34.04;31.34;101437.41;4977520;28;20483;-47
2021/07/09 09:55:05;;;;;;;6.87;4.17;;;;;;;34.31;33.71;101439.69;4978721;28;20687;-45
2021/07/09 09:57:33;;;;;;;4.80;3.00;;;;;;;34.13;32.46;101441.47;4976843;28;20886;-46
2021/07/09 10:00:01;;;;;;;5.90;3.63;;;;;;;34.77;30.33;101433.91;4978279;28;20803;-45
2021/07/09 10:02:28;;;;;;;7.30;4.77;;;;;;;34.61;30.88;101432.00;4977425;28;20510;-46
2021/07/09 10:04:57;;;;;;;6.20;3.90;;;;;;;34.64;31.72;101432.78;4978529;28;20459;-46
2021/07/09 10:07:25;;;;;;;9.53;4.30;;;;;;;34.51;32.44;101428.03;4976966;28;20490;-47
2021/07/09 10:09:53;;;;;;;10.90;4.07;;;;;;;34.29;32.62;101426.38;4978224;28;20481;-45
2021/07/09 10:12:21;;;;;;;6.30;4.10;;;;;;;33.71;33.72;101433.50;4977031;28;20538;-44
2021/07/09 10:14:49;;;;;;;10.57;5.83;;;;;;;34.37;32.47;101433.16;4978164;28;20905;-49
2021/07/09 10:17:18;;;;;;;8.30;4.10;;;;;;;34.02;31.11;101429.41;4976861;28;20565;-48
2021/07/09 10:19:47;;;;;;;7.47;3.57;;;;;;;33.98;32.39;101433.16;4978227;28;20518;-46
2021/07/09 10:22:36;;;;;;;6.60;3.90;;;;;;;33.92;32.20;101422.75;4976960;28;20475;-45
2021/07/09 10:25:04;;;;;;;8.03;3.30;;;;;;;33.56;31.91;101415.50;4978093;28;20456;-44
2021/07/09 10:27:33;;;;;;;4.63;3.60;;;;;;;33.80;31.88;101424.19;4978599;28;20486;-46
2021/07/09 10:30:03;;;;;;;7.40;4.23;;;;;;;33.98;31.61;101419.78;4999337;28;20478;-50
2021/07/09 10:32:32;;;;;;;6.37;3.33;;;;;;;34.07;32.06;101415.84;4996223;28;20489;-45
2021/07/09 10:35:01;;;;;;;9.37;4.43;;;;;;;34.28;31.62;101413.94;4996478;28;20821;-49
2021/07/09 10:37:29;;;;;;;4.27;3.13;;;;;;;34.55;31.13;101410.84;4995865;28;20489;-49
2021/07/09 10:40:12;;;;;;;6.97;3.70;;;;;;;34.79;31.19;101413.25;4997074;28;20482;-47
2021/07/09 10:42:41;;;;;;;6.20;4.63;;;;;;;34.51;31.40;101409.28;4995929;28;20492;-47
2021/07/09 10:45:14;;;;;;;5.23;3.23;;;;;;;34.10;32.07;101409.47;4997339;28;20778;-48
2021/07/09 10:47:45;;;;;;;7.20;3.63;;;;;;;34.50;31.30;101407.53;4995541;28;20772;-45
2021/07/09 10:50:14;;;;;;;6.10;3.83;;;;;;;35.06;30.30;101410.09;4996969;28;20485;-48
2021/07/09 10:53:00;;;;;;;8.97;4.30;;;;;;;34.70;31.61;101411.06;4995730;28;20489;-48
2021/07/09 10:55:54;;;;;;;7.23;3.90;;;;;;;34.90;30.28;101403.81;4996848;28;20796;-48
2021/07/09 10:58:28;;;;;;;10.50;3.97;;;;;;;34.45;32.11;101407.75;4989828;28;20470;-47
2021/07/09 11:00:59;;;;;;;8.83;3.47;;;;;;;34.16;32.35;101410.06;5012568;28;20568;-47
2021/07/09 11:03:34;;;;;;;5.10;3.87;;;;;;;34.83;30.41;101398.78;5016543;28;20489;-49
2021/07/09 11:06:07;;;;;;;7.07;3.90;;;;;;;34.30;31.47;101395.97;5017856;28;20445;-51
2021/07/09 11:08:48;;;;;;;13.57;5.40;;;;;;;34.25;31.83;101400.72;5016401;28;20548;-50
2021/07/09 11:11:35;;;;;;;10.23;4.50;;;;;;;34.24;32.08;101390.94;5015046;28;20567;-48
2021/07/09 11:14:09;;;;;;;6.23;3.80;;;;;;;34.09;31.40;101389.88;5016251;28;20532;-46
2021/07/09 11:16:42;;;;;;;7.53;4.33;;;;;;;34.36;31.21;101384.13;5014679;28;20486;-46
2021/07/09 11:19:17;;;;;;;5.20;4.07;;;;;;;34.09;32.54;101394.34;5016235;28;20544;-48
2021/07/09 11:21:54;;;;;;;9.27;3.83;;;;;;;34.59;32.02;101385.69;5015081;28;20504;-49
2021/07/09 11:24:29;;;;;;;5.53;3.77;;;;;;;34.10;32.28;101394.28;5016307;28;20484;-45